createdAt,value
2022-11-28T00:00:02.599Z,48.43
2022-11-28T00:02:29.156Z,48.65
2022-11-28T00:04:55.588Z,48.64
2022-11-28T00:07:22.186Z,48.67
2022-11-28T00:09:48.876Z,48.49
2022-11-28T00:12:15.286Z,48.86
2022-11-28T00:14:41.965Z,48.98
2022-11-28T00:17:08.522Z,48.80
2022-11-28T00:19:34.947Z,49.01
2022-11-28T00:22:01.455Z,49.11
2022-11-28T00:24:27.879Z,48.58
2022-11-28T00:26:54.249Z,48.72
2022-11-28T00:29:20.873Z,48.65
2022-11-28T00:31:47.369Z,48.76
2022-11-28T00:34:15.439Z,48.59
2022-11-28T00:36:44.703Z,48.58
2022-11-28T00:39:11.032Z,48.68
2022-11-28T00:41:37.365Z,48.37
2022-11-28T00:44:03.790Z,48.31
2022-11-28T00:46:30.343Z,48.69
2022-11-28T00:48:58.682Z,48.74
2022-11-28T00:51:27.552Z,48.29
2022-11-28T00:53:55.849Z,48.32
2022-11-28T00:56:25.526Z,48.75
2022-11-28T00:58:52.507Z,48.54
2022-11-28T01:01:21.861Z,48.56
2022-11-28T01:03:49.906Z,48.21
2022-11-28T01:06:23.968Z,48.35
2022-11-28T01:08:50.954Z,48.69
2022-11-28T01:11:17.594Z,48.53
2022-11-28T01:13:44.240Z,48.67
2022-11-28T01:16:11.061Z,48.29
2022-11-28T01:18:37.955Z,48.52
2022-11-28T01:21:05.404Z,48.23
2022-11-28T01:23:31.855Z,48.41
2022-11-28T01:25:58.297Z,48.65
2022-11-28T01:28:24.618Z,48.46
2022-11-28T01:30:51.022Z,48.46
2022-11-28T01:33:18.422Z,48.21
2022-11-28T01:35:55.014Z,48.24
2022-11-28T01:38:22.022Z,48.76
2022-11-28T01:40:49.386Z,48.25
2022-11-28T01:43:15.806Z,48.72
2022-11-28T01:45:42.432Z,48.47
2022-11-28T01:48:13.884Z,48.79
2022-11-28T01:50:42.435Z,48.69
2022-11-28T01:53:10.616Z,48.56
2022-11-28T01:55:46.814Z,48.67
2022-11-28T01:58:14.223Z,48.79
2022-11-28T02:00:40.644Z,48.64
2022-11-28T02:03:14.042Z,48.56
2022-11-28T02:05:40.816Z,48.37
2022-11-28T02:08:09.788Z,48.67
2022-11-28T02:10:41.758Z,48.63
2022-11-28T02:13:14.107Z,48.29
2022-11-28T02:16:02.126Z,48.69
2022-11-28T02:19:09.798Z,48.63
2022-11-28T02:21:47.470Z,48.67
2022-11-28T02:24:25.749Z,48.36
2022-11-28T02:27:20.914Z,48.46
2022-11-28T02:29:56.042Z,48.64
2022-11-28T02:32:56.094Z,48.44
2022-11-28T02:35:39.327Z,48.43
2022-11-28T02:38:19.202Z,48.56
2022-11-28T02:41:07.455Z,48.97
2022-11-28T02:44:04.425Z,48.32
2022-11-28T02:46:49.799Z,48.58
2022-11-28T02:49:23.828Z,48.52
2022-11-28T02:51:56.489Z,48.56
2022-11-28T02:54:24.846Z,48.36
2022-11-28T02:56:53.234Z,48.47
2022-11-28T02:59:37.849Z,48.47
2022-11-28T03:02:15.981Z,48.29
2022-11-28T03:05:07.508Z,48.79
2022-11-28T03:07:43.101Z,48.43
2022-11-28T03:10:30.359Z,48.78
2022-11-28T03:13:34.169Z,48.69
2022-11-28T03:16:13.081Z,48.42
2022-11-28T03:19:05.274Z,48.48
2022-11-28T03:21:52.255Z,48.63
2022-11-28T03:24:43.457Z,48.46
2022-11-28T03:27:37.366Z,48.43
2022-11-28T03:30:09.076Z,48.58
2022-11-28T03:32:38.103Z,48.60
2022-11-28T03:35:13.478Z,48.71
2022-11-28T03:37:44.934Z,48.48
2022-11-28T03:40:17.095Z,48.76
2022-11-28T03:42:48.815Z,48.49
2022-11-28T03:45:23.603Z,48.87
2022-11-28T03:47:57.462Z,48.36
2022-11-28T03:50:31.831Z,48.39
2022-11-28T03:53:11.907Z,48.34
2022-11-28T03:56:17.397Z,48.42
2022-11-28T03:58:52.520Z,48.87
2022-11-28T04:01:28.825Z,48.29
2022-11-28T04:04:05.836Z,48.54
2022-11-28T04:06:53.348Z,48.75
2022-11-28T04:09:46.890Z,48.78
2022-11-28T04:12:53.109Z,48.33
2022-11-28T04:15:47.045Z,48.42
2022-11-28T04:18:38.140Z,48.31
2022-11-28T04:21:19.990Z,48.46
2022-11-28T04:23:49.321Z,48.35
2022-11-28T04:26:24.501Z,48.60
2022-11-28T04:28:53.838Z,48.60
2022-11-28T04:31:22.796Z,48.71
2022-11-28T04:33:56.637Z,48.75
2022-11-28T04:36:25.729Z,48.28
2022-11-28T04:38:56.663Z,48.74
2022-11-28T04:41:32.009Z,48.56
2022-11-28T04:44:03.243Z,48.77
2022-11-28T04:46:40.206Z,48.41
2022-11-28T04:49:07.126Z,48.31
2022-11-28T04:51:36.516Z,48.42
2022-11-28T04:54:10.390Z,48.55
2022-11-28T04:56:43.814Z,48.49
2022-11-28T04:59:12.552Z,48.75
2022-11-28T05:01:42.781Z,48.38
2022-11-28T05:04:09.377Z,48.78
2022-11-28T05:06:36.586Z,48.28
2022-11-28T05:09:03.802Z,48.63
2022-11-28T05:11:30.968Z,48.30
2022-11-28T05:13:57.272Z,48.64
2022-11-28T05:16:23.863Z,48.68
2022-11-28T05:18:50.587Z,48.62
2022-11-28T05:21:16.969Z,48.24
2022-11-28T05:23:45.242Z,48.44
2022-11-28T05:26:14.697Z,48.67
2022-11-28T05:28:47.237Z,48.84
2022-11-28T05:31:14.504Z,48.50
2022-11-28T05:33:41.069Z,48.43
2022-11-28T05:36:13.210Z,48.40
2022-11-28T05:38:40.334Z,48.37
2022-11-28T05:41:07.147Z,48.46
2022-11-28T05:43:33.701Z,48.38
2022-11-28T05:46:00.137Z,48.21
2022-11-28T05:48:26.588Z,48.25
2022-11-28T05:50:52.945Z,48.57
2022-11-28T05:53:20.271Z,48.43
2022-11-28T05:55:47.257Z,48.85
2022-11-28T05:58:13.656Z,48.73
2022-11-28T06:00:40.130Z,48.56
2022-11-28T06:03:07.162Z,49.05
2022-11-28T06:05:43.247Z,49.06
2022-11-28T06:08:13.507Z,48.96
2022-11-28T06:10:40.317Z,48.86
2022-11-28T06:13:06.693Z,48.89
2022-11-28T06:15:37.508Z,49.19
2022-11-28T06:18:04.445Z,49.24
2022-11-28T06:20:30.758Z,49.17
2022-11-28T06:22:57.056Z,49.09
2022-11-28T06:25:23.417Z,49.47
2022-11-28T06:27:49.725Z,49.49
2022-11-28T06:30:16.319Z,49.50
2022-11-28T06:32:42.634Z,49.16
2022-11-28T06:35:09.178Z,49.16
2022-11-28T06:37:35.540Z,49.51
2022-11-28T06:40:01.861Z,49.35
2022-11-28T06:42:28.222Z,49.36
2022-11-28T06:44:54.591Z,49.42
2022-11-28T06:47:20.954Z,49.44
2022-11-28T06:49:48.839Z,49.71
2022-11-28T06:52:15.199Z,49.91
2022-11-28T06:54:42.022Z,49.82
2022-11-28T06:57:08.327Z,49.82
2022-11-28T06:59:34.634Z,50.15
2022-11-28T07:02:07.453Z,50.07
2022-11-28T07:04:34.512Z,49.94
2022-11-28T07:07:00.915Z,50.14
2022-11-28T07:09:27.310Z,50.34
2022-11-28T07:11:53.644Z,50.29
2022-11-28T07:14:19.958Z,50.72
2022-11-28T07:16:47.325Z,50.87
2022-11-28T07:19:14.027Z,50.49
2022-11-28T07:21:41.143Z,50.90
2022-11-28T07:24:07.549Z,50.90
2022-11-28T07:26:33.921Z,51.12
2022-11-28T07:29:00.285Z,51.06
2022-11-28T07:31:31.407Z,50.92
2022-11-28T07:34:00.658Z,51.20
2022-11-28T07:36:28.483Z,51.76
2022-11-28T07:39:00.531Z,51.75
2022-11-28T07:41:27.679Z,51.40
2022-11-28T07:43:59.586Z,51.51
2022-11-28T07:46:26.780Z,51.53
2022-11-28T07:48:53.401Z,51.39
2022-11-28T07:51:25.680Z,51.25
2022-11-28T07:53:52.512Z,51.60
2022-11-28T07:56:21.438Z,51.61
2022-11-28T07:58:48.690Z,51.77
2022-11-28T08:01:18.425Z,51.64
2022-11-28T08:03:45.729Z,51.39
2022-11-28T08:06:12.695Z,51.77
2022-11-28T08:08:39.650Z,51.77
2022-11-28T08:11:08.187Z,51.55
2022-11-28T08:13:35.878Z,51.82
2022-11-28T08:16:12.313Z,51.69
2022-11-28T08:18:39.041Z,51.98
2022-11-28T08:21:11.635Z,52.20
2022-11-28T08:23:39.258Z,52.11
2022-11-28T08:26:08.407Z,51.99
2022-11-28T08:28:35.423Z,51.90
2022-11-28T08:31:19.365Z,52.30
2022-11-28T08:33:47.934Z,52.02
2022-11-28T08:36:16.203Z,52.03
2022-11-28T08:38:53.453Z,52.25
2022-11-28T08:41:29.537Z,52.30
2022-11-28T08:43:55.835Z,52.45
2022-11-28T08:46:23.021Z,52.47
2022-11-28T08:48:51.538Z,52.36
2022-11-28T08:51:20.833Z,52.25
2022-11-28T08:53:49.327Z,52.52
2022-11-28T08:56:16.464Z,52.52
2022-11-28T08:58:42.935Z,52.34
2022-11-28T09:01:20.996Z,52.14
2022-11-28T09:03:47.975Z,52.18
2022-11-28T09:06:15.977Z,52.38
2022-11-28T09:08:42.881Z,52.35
2022-11-28T09:11:11.090Z,52.23
2022-11-28T09:13:37.911Z,52.11
2022-11-28T09:16:04.942Z,52.62
2022-11-28T09:18:31.811Z,52.55
2022-11-28T09:20:59.724Z,52.34
2022-11-28T09:23:26.313Z,52.43
2022-11-28T09:25:52.779Z,52.41
2022-11-28T09:28:19.204Z,52.42
2022-11-28T09:30:45.617Z,52.91
2022-11-28T09:33:13.314Z,52.22
2022-11-28T09:35:40.516Z,52.72
2022-11-28T09:38:07.334Z,52.55
2022-11-28T09:40:40.222Z,52.17
2022-11-28T09:43:16.290Z,52.64
2022-11-28T09:45:45.825Z,52.56
2022-11-28T09:48:24.468Z,52.35
2022-11-28T09:51:01.339Z,53.19
2022-11-28T09:53:37.641Z,53.19
2022-11-28T09:56:24.537Z,52.99
2022-11-28T09:58:58.727Z,53.21
2022-11-28T10:01:36.806Z,52.92
2022-11-28T10:04:11.403Z,53.43
2022-11-28T10:06:40.770Z,53.24
2022-11-28T10:09:22.538Z,53.19
2022-11-28T10:11:48.813Z,53.54
2022-11-28T10:14:46.625Z,53.08
2022-11-28T10:17:19.170Z,53.23
2022-11-28T10:20:06.170Z,53.36
2022-11-28T10:22:42.835Z,53.07
2022-11-28T10:25:26.475Z,53.53
2022-11-28T10:27:53.884Z,53.58
2022-11-28T10:30:22.795Z,53.44
2022-11-28T10:33:01.730Z,53.84
2022-11-28T10:35:39.989Z,53.77
2022-11-28T10:38:11.862Z,53.89
2022-11-28T10:41:07.055Z,54.11
2022-11-28T10:43:44.097Z,50.66
2022-11-28T10:46:31.233Z,52.20
2022-11-28T10:49:16.999Z,52.63
2022-11-28T10:52:13.940Z,52.68
2022-11-28T10:54:58.968Z,52.77
2022-11-28T10:57:34.418Z,52.88
2022-11-28T11:00:13.789Z,53.04
2022-11-28T11:02:55.879Z,52.84
2022-11-28T11:05:27.955Z,52.85
2022-11-28T11:07:57.220Z,53.00
2022-11-28T11:10:51.471Z,53.16
2022-11-28T11:13:26.952Z,53.13
2022-11-28T11:15:59.240Z,53.08
2022-11-28T11:18:31.402Z,53.09
2022-11-28T11:21:09.670Z,52.80
2022-11-28T11:23:38.485Z,52.93
2022-11-28T11:26:10.059Z,52.83
2022-11-28T11:28:43.773Z,52.88
2022-11-28T11:31:21.533Z,52.81
2022-11-28T11:33:51.269Z,53.22
2022-11-28T11:36:24.966Z,53.19
2022-11-28T11:38:51.557Z,53.08
2022-11-28T11:41:28.909Z,53.06
2022-11-28T11:43:57.109Z,52.80
2022-11-28T11:46:23.601Z,53.19
2022-11-28T11:48:53.428Z,53.13
2022-11-28T11:51:22.580Z,53.00
2022-11-28T11:53:59.242Z,52.85
2022-11-28T11:56:25.864Z,53.03
2022-11-28T11:58:55.488Z,52.78
2022-11-28T12:01:22.930Z,52.85
2022-11-28T12:03:57.349Z,53.22
2022-11-28T12:06:37.116Z,52.96
2022-11-28T12:09:28.519Z,53.78
2022-11-28T12:12:21.247Z,53.55
2022-11-28T12:14:49.426Z,53.10
2022-11-28T14:15:29.915Z,55.09
2022-11-28T14:18:02.190Z,55.26
2022-11-28T14:20:37.715Z,55.25
2022-11-28T14:23:36.518Z,55.10
2022-11-28T14:26:13.212Z,55.12
2022-11-28T14:28:44.470Z,54.82
2022-11-28T14:31:11.135Z,54.89
2022-11-28T14:33:42.701Z,54.74
2022-11-28T14:36:25.426Z,55.03
2022-11-28T14:39:30.473Z,54.70
2022-11-28T14:42:05.676Z,55.34
2022-11-28T14:44:57.244Z,55.17
2022-11-28T14:47:23.567Z,55.20
2022-11-28T14:50:10.299Z,55.08
2022-11-28T14:52:40.297Z,55.66
2022-11-28T14:55:09.918Z,55.33
2022-11-28T14:57:41.342Z,55.58
2022-11-28T15:00:15.425Z,55.63
2022-11-28T15:02:52.763Z,55.62
2022-11-28T15:05:22.391Z,55.71
2022-11-28T15:08:16.901Z,55.43
2022-11-28T15:10:54.826Z,55.77
2022-11-28T15:13:42.739Z,55.38
2022-11-28T15:16:13.234Z,55.41
2022-11-28T15:18:46.555Z,55.61
2022-11-28T15:21:16.721Z,55.36
2022-11-28T15:23:43.060Z,55.29
2022-11-28T15:26:27.466Z,54.86
2022-11-28T15:29:15.270Z,54.94
2022-11-28T15:31:43.207Z,55.16
2022-11-28T15:34:10.806Z,55.10
2022-11-28T15:36:39.137Z,55.09
2022-11-28T15:39:27.029Z,54.70
2022-11-28T15:41:55.578Z,55.07
2022-11-28T15:44:22.013Z,54.70
2022-11-28T15:46:48.767Z,54.71
2022-11-28T15:49:25.172Z,54.97
2022-11-28T15:51:53.873Z,55.93
2022-11-28T15:54:41.110Z,54.77
2022-11-28T15:57:19.227Z,55.10
2022-11-28T15:59:45.919Z,54.93
2022-11-28T16:02:23.439Z,54.86
2022-11-28T16:04:54.940Z,55.23
2022-11-28T16:07:21.585Z,55.30
2022-11-28T16:09:57.982Z,54.94
2022-11-28T16:12:25.304Z,55.18
2022-11-28T16:14:55.283Z,55.40
2022-11-28T16:17:40.536Z,55.06
2022-11-28T16:20:07.567Z,55.58
2022-11-28T16:22:36.589Z,55.69
2022-11-28T16:25:24.842Z,55.73
2022-11-28T16:27:57.197Z,55.36
2022-11-28T16:30:42.730Z,56.04
2022-11-28T16:33:34.013Z,55.71
2022-11-28T16:36:15.670Z,55.71
2022-11-28T16:38:43.325Z,55.82
2022-11-28T16:41:18.476Z,55.70
2022-11-28T16:43:49.401Z,55.77
2022-11-28T16:46:21.455Z,55.79
2022-11-28T16:48:52.514Z,55.77
2022-11-28T16:51:21.605Z,55.38
2022-11-28T16:53:50.674Z,55.38
2022-11-28T16:56:43.717Z,55.50
2022-11-28T16:59:18.373Z,56.11
2022-11-28T17:01:46.901Z,56.47
2022-11-28T17:04:22.100Z,55.90
2022-11-28T17:06:48.769Z,55.97
2022-11-28T17:09:15.471Z,56.31
2022-11-28T17:11:46.499Z,56.34
2022-11-28T17:14:14.053Z,56.08
2022-11-28T17:16:41.279Z,56.17
2022-11-28T17:19:08.038Z,56.27
2022-11-28T17:21:40.633Z,56.16
2022-11-28T17:24:16.087Z,55.17
2022-11-28T17:26:42.519Z,55.78
2022-11-28T17:29:13.294Z,55.62
2022-11-28T17:31:42.463Z,56.02
2022-11-28T17:34:15.898Z,54.42
2022-11-28T17:36:42.364Z,54.95
2022-11-28T17:39:09.454Z,55.44
2022-11-28T17:41:36.010Z,54.15
2022-11-28T17:44:02.662Z,53.50
2022-11-28T17:46:29.131Z,52.67
2022-11-28T17:48:56.478Z,52.03
2022-11-28T17:51:22.882Z,51.89
2022-11-28T17:53:49.266Z,51.66
2022-11-28T17:56:15.663Z,52.04
2022-11-28T17:58:42.042Z,51.37
2022-11-28T18:01:12.914Z,53.92
2022-11-28T18:03:40.145Z,54.66
2022-11-28T18:06:06.967Z,54.53
2022-11-28T18:08:33.426Z,54.91
2022-11-28T18:11:08.842Z,54.89
2022-11-28T18:13:36.193Z,54.45
2022-11-28T18:16:02.826Z,54.94
2022-11-28T18:18:29.830Z,54.54
2022-11-28T18:20:56.264Z,54.62
2022-11-28T18:23:22.623Z,54.67
2022-11-28T18:25:49.036Z,54.76
2022-11-28T18:28:18.851Z,54.74
2022-11-28T18:30:47.015Z,54.69
2022-11-28T18:33:14.894Z,54.92
2022-11-28T18:35:41.278Z,54.86
2022-11-28T18:38:08.459Z,54.86
2022-11-28T18:40:36.273Z,54.69
2022-11-28T18:43:03.467Z,54.55
2022-11-28T18:45:30.290Z,55.04
2022-11-28T18:48:00.188Z,54.67
2022-11-28T18:50:27.010Z,54.83
2022-11-28T18:52:53.441Z,55.23
2022-11-28T18:55:20.202Z,55.16
2022-11-28T18:57:46.688Z,55.39
2022-11-28T19:00:13.712Z,55.34
2022-11-28T19:02:40.685Z,55.45
2022-11-28T19:05:07.323Z,55.39
2022-11-28T19:07:33.778Z,55.28
2022-11-28T19:10:00.177Z,55.43
2022-11-28T19:12:26.545Z,55.27
2022-11-28T19:14:57.318Z,55.59
2022-11-28T19:17:26.701Z,55.36
2022-11-28T19:19:53.118Z,55.21
2022-11-28T19:22:19.481Z,55.26
2022-11-28T19:24:45.834Z,55.20
2022-11-28T19:27:14.530Z,55.52
2022-11-28T19:29:41.309Z,55.25
2022-11-28T19:32:07.942Z,55.11
2022-11-28T19:34:34.318Z,55.02
2022-11-28T19:37:00.617Z,55.08
2022-11-28T19:39:26.923Z,54.96
2022-11-28T19:41:53.929Z,55.21
2022-11-28T19:44:21.864Z,54.82
2022-11-28T19:46:48.382Z,55.34
2022-11-28T19:49:20.547Z,55.45
2022-11-28T19:51:47.915Z,55.04
2022-11-28T19:54:15.210Z,55.26
2022-11-28T19:56:41.744Z,55.23
2022-11-28T19:59:08.094Z,54.94
2022-11-28T20:01:34.571Z,54.93
2022-11-28T20:04:00.998Z,54.78
2022-11-28T20:06:30.142Z,54.97
2022-11-28T20:08:59.550Z,54.74
2022-11-28T20:11:34.339Z,54.92
2022-11-28T20:14:06.922Z,54.70
2022-11-28T20:16:35.203Z,54.87
2022-11-28T20:19:02.510Z,54.75
2022-11-28T20:21:30.267Z,54.88
2022-11-28T20:23:59.602Z,54.95
2022-11-28T20:26:26.857Z,54.85
2022-11-28T20:28:55.166Z,54.77
2022-11-28T20:31:33.685Z,54.61
2022-11-28T20:34:01.147Z,55.08
2022-11-28T20:36:30.618Z,54.82
2022-11-28T20:38:57.206Z,54.56
2022-11-28T20:41:25.523Z,54.52
2022-11-28T20:43:52.153Z,54.57
2022-11-28T20:46:24.074Z,54.88
2022-11-28T20:48:50.734Z,54.83
2022-11-28T20:51:24.667Z,54.72
2022-11-28T20:53:52.158Z,54.89
2022-11-28T20:56:21.376Z,54.73
2022-11-28T20:58:48.389Z,54.50
2022-11-28T21:01:23.437Z,54.98
2022-11-28T21:03:50.924Z,54.80
2022-11-28T21:06:17.726Z,54.40
2022-11-28T21:08:44.302Z,54.62
2022-11-28T21:11:25.571Z,54.55
2022-11-28T21:14:00.507Z,54.35
2022-11-28T21:16:31.104Z,54.47
2022-11-28T21:19:03.743Z,54.25
2022-11-28T21:21:32.535Z,54.19
2022-11-28T21:24:01.974Z,54.35
2022-11-28T21:26:30.574Z,54.10
2022-11-28T21:29:02.320Z,54.36
2022-11-28T21:31:32.331Z,54.57
2022-11-28T21:34:00.306Z,54.42
2022-11-28T21:36:29.240Z,54.05
2022-11-28T21:38:57.960Z,53.93
2022-11-28T21:41:28.722Z,54.03
2022-11-28T21:43:55.642Z,54.15
2022-11-28T21:46:22.078Z,54.22
2022-11-28T21:48:48.485Z,54.29
2022-11-28T21:51:20.272Z,54.10
2022-11-28T21:53:46.870Z,54.29
2022-11-28T21:56:13.302Z,54.17
2022-11-28T21:58:39.879Z,54.07
2022-11-28T22:01:09.184Z,54.11
2022-11-28T22:03:35.829Z,53.94
2022-11-28T22:06:16.717Z,53.98
2022-11-28T22:08:43.587Z,53.81
2022-11-28T22:11:11.256Z,53.51
2022-11-28T22:13:38.537Z,53.56
2022-11-28T22:16:14.657Z,53.75
2022-11-28T22:18:41.229Z,53.56
2022-11-28T22:21:28.666Z,53.47
2022-11-28T22:23:56.259Z,53.49
2022-11-28T22:26:22.771Z,53.66
2022-11-28T22:28:53.637Z,53.55
2022-11-28T22:31:20.827Z,53.34
2022-11-28T22:33:49.127Z,53.59
2022-11-28T22:36:17.677Z,53.64
2022-11-28T22:38:45.527Z,53.53
2022-11-28T22:41:15.943Z,53.46
2022-11-28T22:43:42.311Z,53.33
2022-11-28T22:46:10.495Z,53.27
2022-11-28T22:48:38.092Z,53.05
2022-11-28T22:51:10.156Z,53.48
2022-11-28T22:53:37.131Z,53.18
2022-11-28T22:56:08.885Z,53.16
2022-11-28T22:58:42.710Z,53.18
2022-11-28T23:01:11.614Z,52.99
2022-11-28T23:03:38.148Z,53.16
2022-11-28T23:06:14.289Z,53.26
2022-11-28T23:08:40.914Z,53.02
2022-11-28T23:11:13.561Z,53.16
2022-11-28T23:13:40.429Z,53.11
2022-11-28T23:16:10.729Z,53.21
2022-11-28T23:18:37.094Z,53.05
2022-11-28T23:21:03.873Z,52.76
2022-11-28T23:23:32.078Z,52.81
2022-11-28T23:26:11.956Z,53.17
2022-11-28T23:28:39.269Z,52.70
2022-11-28T23:31:11.947Z,52.67
2022-11-28T23:33:38.926Z,52.76
2022-11-28T23:36:23.491Z,52.84
2022-11-28T23:38:52.625Z,52.86
2022-11-28T23:41:19.795Z,52.61
2022-11-28T23:43:46.560Z,52.51
2022-11-28T23:46:14.465Z,52.50
2022-11-28T23:48:42.467Z,52.75
2022-11-28T23:51:09.106Z,52.67
2022-11-28T23:53:36.569Z,52.71
2022-11-28T23:56:08.542Z,52.53
2022-11-28T23:58:35.344Z,52.48
